Time;durP1;ratioP1;P1;durP2;ratioP2;P2;SDS_P1;SDS_P2;PMS_P1;PMS_P2;Temp;Humidity;BMP_temperature;BMP_pressure;BME280_temperature;BME280_humidity;BME280_pressure;Samples;Min_cycle;Max_cycle;Signal;HPM_P1;HPM_P2
2023/02/13 00:00:35;;;;;;;29.05;17.67;;;7.90;99.90;;;-144.05;73.54;56984.78;5001547;28;20125;-80
2023/02/13 00:03:01;;;;;;;29.80;18.13;;;7.80;99.90;;;-144.05;73.86;56989.00;5000802;28;20504;-82
2023/02/13 00:05:27;;;;;;;30.25;18.17;;;7.80;99.90;;;-144.05;73.69;56978.41;5004321;28;20030;-82
2023/02/13 00:07:54;;;;;;;33.78;19.20;;;7.80;99.90;;;-144.05;73.44;57014.50;5021251;28;20101;-81
2023/02/13 00:10:20;;;;;;;32.75;19.20;;;7.80;99.90;;;-144.05;73.65;57025.13;5001665;28;20192;-81
2023/02/13 00:12:46;;;;;;;39.25;21.48;;;7.80;99.90;;;-144.05;74.17;57001.75;5002461;28;20049;-80
2023/02/13 00:15:12;;;;;;;35.00;19.48;;;7.80;99.90;;;-144.05;74.31;57012.38;5019432;28;20029;-82
2023/02/13 00:17:38;;;;;;;31.75;18.83;;;7.80;99.90;;;-144.05;74.01;56999.63;5002613;28;20034;-81
2023/02/13 00:20:06;;;;;;;37.25;21.67;;;7.80;99.90;;;-144.05;74.73;56963.53;5018533;28;20405;-83
2023/02/13 00:22:37;;;;;;;38.40;22.58;;;7.80;99.90;;;-144.05;75.14;56982.66;5018497;28;20045;-83
2023/02/13 00:25:06;;;;;;;36.60;20.98;;;7.80;99.90;;;-144.05;74.59;56984.78;5001874;28;20033;-81
2023/02/13 00:27:32;;;;;;;40.58;21.88;;;7.80;99.90;;;-144.05;74.66;56989.00;5018004;28;20112;-82
2023/02/13 00:29:58;;;;;;;36.70;20.80;;;7.80;99.90;;;-144.05;74.53;56967.78;5017789;28;20394;-82
2023/02/13 00:32:24;;;;;;;36.20;21.55;;;7.80;99.90;;;-144.05;74.51;56993.25;5018009;28;20037;-84
2023/02/13 00:34:50;;;;;;;35.80;20.38;;;7.90;99.90;;;-144.05;74.70;57006.00;5000016;28;20056;-83
2023/02/13 00:37:16;;;;;;;39.45;21.95;;;7.80;99.90;;;-144.05;74.66;56980.53;5000809;28;20117;-81
2023/02/13 00:39:42;;;;;;;37.13;21.73;;;7.80;99.90;;;-144.05;74.51;56982.66;5014216;28;20030;-81
2023/02/13 00:42:08;;;;;;;42.83;21.60;;;7.80;99.90;;;-144.05;75.18;56986.91;4998597;28;20045;-81
2023/02/13 00:44:34;;;;;;;37.72;22.40;;;7.80;99.90;;;-144.05;75.17;56978.41;4997265;28;20022;-82
2023/02/13 00:47:00;;;;;;;36.60;21.65;;;7.90;99.90;;;-144.05;75.06;56999.63;5002428;28;20084;-81
2023/02/13 00:49:26;;;;;;;33.80;19.20;;;7.90;99.90;;;-144.05;74.88;56980.53;5001943;28;20068;-80
2023/02/13 00:51:51;;;;;;;35.33;19.95;;;7.80;99.90;;;-144.05;74.88;57008.13;5001486;28;20034;-83
2023/02/13 00:54:17;;;;;;;33.65;18.92;;;7.80;99.90;;;-144.05;75.15;56972.03;5001945;28;20124;-83
2023/02/13 00:56:43;;;;;;;32.05;19.23;;;7.80;99.90;;;-144.05;75.01;57027.25;5001764;28;20026;-82
2023/02/13 00:59:09;;;;;;;28.85;17.80;;;7.80;99.90;;;-144.05;75.23;56982.66;5019204;28;20539;-82
2023/02/13 01:01:35;;;;;;;27.80;17.58;;;7.90;99.90;;;-144.05;74.36;56993.25;5019578;28;20161;-83
2023/02/13 01:04:01;;;;;;;32.65;18.35;;;7.90;99.90;;;-144.05;74.61;56984.78;5002984;28;20121;-83
2023/02/13 01:06:26;;;;;;;33.65;19.35;;;7.80;99.90;;;-144.05;74.24;56997.50;5020431;28;20049;-84
2023/02/13 01:08:52;;;;;;;33.00;19.95;;;7.80;99.90;;;-144.05;74.35;56991.13;5002910;28;20342;-80
2023/02/13 01:11:18;;;;;;;30.13;19.25;;;7.70;99.90;;;-144.05;74.22;56978.41;5020324;28;20486;-83
2023/02/13 01:13:45;;;;;;;27.35;16.70;;;7.80;99.90;;;-144.05;74.93;56995.38;5021552;28;20094;-83
2023/02/13 01:16:11;;;;;;;30.13;17.42;;;7.70;99.90;;;-144.05;74.82;56980.53;5021093;28;20038;-80
2023/02/13 01:18:38;;;;;;;31.42;18.50;;;7.80;99.90;;;-144.05;74.83;57008.13;5020680;28;20172;-80
2023/02/13 01:21:17;;;;;;;29.95;17.85;;;7.80;99.90;;;-144.05;74.34;56984.78;5002355;28;20508;-82
2023/02/13 01:23:44;;;;;;;25.23;15.38;;;7.80;99.90;;;-144.05;74.22;56978.41;5019883;28;20049;-81
2023/02/13 01:26:18;;;;;;;27.08;15.38;;;7.80;99.90;;;-144.05;73.87;56969.91;5019303;28;20084;-81
2023/02/13 01:28:45;;;;;;;30.77;18.10;;;7.80;99.90;;;-144.05;74.14;56993.25;5001608;28;20032;-82
2023/02/13 01:31:11;;;;;;;24.33;14.25;;;7.80;99.90;;;-144.05;73.88;56986.91;5002233;28;20038;-82
2023/02/13 01:33:37;;;;;;;27.33;12.45;;;7.80;99.90;;;-144.05;73.72;56980.53;5021079;28;20030;-83
2023/02/13 01:36:10;;;;;;;19.55;10.98;;;7.80;99.90;;;-144.05;73.50;56982.66;5024534;28;20109;-79
2023/02/13 01:38:36;;;;;;;20.58;12.20;;;7.80;99.90;;;-144.05;73.28;57001.75;5025052;28;20022;-78
2023/02/13 01:41:02;;;;;;;21.27;12.02;;;8.00;99.90;;;-144.05;73.12;56982.66;5020646;28;20038;-80
2023/02/13 01:43:55;;;;;;;20.20;12.82;;;7.90;99.90;;;-144.05;72.98;56974.16;5020389;28;20037;-80
2023/02/13 01:46:43;;;;;;;19.90;12.20;;;7.90;99.90;;;-144.05;72.90;56989.00;5001675;28;20147;-81
2023/02/13 01:49:19;;;;;;;22.38;12.30;;;7.90;99.90;;;-144.05;73.25;56997.50;5019343;28;20026;-82
2023/02/13 01:51:54;;;;;;;21.75;12.32;;;8.00;99.90;;;-144.05;72.61;56993.25;5019118;28;20037;-81
2023/02/13 01:54:32;;;;;;;19.77;12.20;;;8.00;99.90;;;-144.05;72.81;56967.78;5019634;28;20026;-81
2023/02/13 01:57:14;;;;;;;18.17;11.32;;;8.00;99.90;;;-144.05;72.56;56963.53;5016609;28;20022;-80
2023/02/13 02:00:05;;;;;;;19.15;11.82;;;7.90;99.90;;;-144.05;72.25;56967.78;4998909;28;20054;-82
2023/02/13 02:02:41;;;;;;;17.70;10.85;;;8.00;99.90;;;-144.05;72.31;57020.88;5016564;28;20150;-81
2023/02/13 02:05:10;;;;;;;15.23;9.60;;;8.00;99.90;;;-144.05;71.95;56980.53;5016945;28;20053;-83
2023/02/13 02:07:40;;;;;;;16.52;9.35;;;7.90;99.90;;;-144.05;72.46;56997.50;5016397;28;20509;-83
2023/02/13 02:10:17;;;;;;;14.88;9.27;;;7.90;99.90;;;-144.05;72.09;56980.53;5020015;28;20029;-82
2023/02/13 02:13:05;;;;;;;13.48;8.25;;;7.90;99.90;;;-144.05;72.21;56980.53;5015544;28;20041;-81
2023/02/13 02:15:32;;;;;;;15.48;8.38;;;7.90;99.90;;;-144.05;72.11;56963.53;5016370;28;20030;-80
2023/02/13 02:17:58;;;;;;;14.73;8.65;;;7.80;99.90;;;-144.05;72.22;57001.75;5016941;28;20034;-83
2023/02/13 02:21:09;;;;;;;17.85;8.98;;;7.90;99.90;;;-144.05;72.37;56993.25;4998442;28;20405;-82
2023/02/13 02:24:24;;;;;;;12.63;7.82;;;7.90;99.90;;;-144.05;72.08;56984.78;4999468;28;20026;-81
2023/02/13 02:27:21;;;;;;;15.32;8.73;;;7.80;99.90;;;-144.05;72.41;56991.13;5017110;28;20026;-82
2023/02/13 02:30:20;;;;;;;14.85;8.68;;;7.80;99.90;;;-144.05;72.00;56999.63;4998891;28;20112;-80
2023/02/13 02:33:40;;;;;;;15.20;8.80;;;7.80;99.90;;;-144.05;72.35;56986.91;5016400;28;20160;-82
2023/02/13 02:36:28;;;;;;;13.90;8.20;;;7.80;99.90;;;-144.05;72.16;56997.50;5016874;28;20058;-84
2023/02/13 02:39:53;;;;;;;12.23;7.40;;;7.80;99.90;;;-144.05;72.28;56997.50;4998685;28;20473;-83
2023/02/13 02:42:49;;;;;;;13.40;7.50;;;7.80;99.90;;;-144.05;71.91;56984.78;4998930;28;20041;-80
2023/02/13 02:45:38;;;;;;;11.30;7.72;;;7.80;99.90;;;-144.05;72.80;57006.00;4999909;28;20033;-80
2023/02/13 02:51:31;;;;;;;15.80;9.50;;;7.80;99.90;;;-144.05;73.12;56982.66;5016853;28;20084;-85
2023/02/13 03:06:09;;;;;;;15.43;8.90;;;7.70;99.90;;;-144.05;73.22;57001.75;5017868;28;20620;-83
2023/02/13 03:06:53;;;;;;;9.07;6.32;;;7.70;99.90;;;-144.05;73.10;56991.13;4975384;28;20366;-84
2023/02/13 03:15:30;;;;;;;9.90;6.05;;;7.60;99.90;;;-144.05;72.99;56995.38;5016404;28;20052;-82
2023/02/13 03:24:49;;;;;;;8.25;5.78;;;7.60;99.90;;;-144.05;72.95;56997.50;5016416;28;20108;-82
2023/02/13 03:31:08;;;;;;;9.57;6.25;;;7.50;99.90;;;-144.05;72.36;56991.13;5016573;28;20173;-83
2023/02/13 03:33:59;;;;;;;7.80;6.35;;;7.50;99.90;;;-144.05;72.80;56978.41;5016871;28;20056;-83
2023/02/13 03:40:11;;;;;;;10.05;5.47;;;7.40;99.90;;;-144.05;73.13;56991.13;5029379;28;20120;-78
2023/02/13 03:42:54;;;;;;;7.75;4.75;;;7.30;99.90;;;-144.05;73.08;57006.00;5035200;28;20090;-83
2023/02/13 03:45:51;;;;;;;9.55;5.30;;;7.30;99.90;;;-144.05;72.89;56989.00;5024544;28;20026;-81
2023/02/13 03:50:04;;;;;;;5.90;4.72;;;7.30;99.90;;;-144.05;72.80;56989.00;4995846;28;20025;-81
2023/02/13 03:51:31;;;;;;;7.15;4.85;;;7.30;99.90;;;-144.05;72.56;56980.53;5013631;28;20021;-82
2023/02/13 03:54:10;;;;;;;6.75;4.78;;;7.30;99.90;;;-144.05;72.70;57012.38;4996307;28;20037;-81
2023/02/13 03:59:34;;;;;;;6.22;4.03;;;7.20;99.90;;;-144.05;72.92;57012.38;5013315;28;20041;-80
2023/02/13 04:02:24;;;;;;;7.03;4.30;;;7.20;99.90;;;-144.05;73.12;57001.75;5013952;28;20498;-80
2023/02/13 04:05:14;;;;;;;4.53;3.50;;;7.20;99.90;;;-144.05;72.82;57010.25;5014190;28;20172;-81
2023/02/13 04:07:40;;;;;;;7.75;4.25;;;7.20;99.90;;;-144.05;72.89;57018.75;5013868;28;20022;-81
2023/02/13 04:10:14;;;;;;;7.45;4.13;;;7.20;99.90;;;-144.05;73.29;57001.75;5013487;28;20022;-80
2023/02/13 04:13:10;;;;;;;6.82;4.47;;;7.20;99.90;;;-144.05;72.68;56989.00;4996148;28;20030;-82
2023/02/13 04:16:10;;;;;;;5.72;3.72;;;7.20;99.90;;;-144.05;73.12;56991.13;4998565;28;20084;-81
2023/02/13 04:18:38;;;;;;;6.05;3.70;;;7.20;99.90;;;-144.05;72.66;56995.38;4996433;28;20120;-80
2023/02/13 04:21:06;;;;;;;6.95;4.30;;;7.20;99.90;;;-144.05;72.64;56969.91;4997002;28;20560;-80
2023/02/13 04:23:33;;;;;;;6.88;4.50;;;7.20;99.90;;;-144.05;72.60;56976.28;5017335;28;20030;-83
2023/02/13 04:26:09;;;;;;;6.88;4.45;;;7.20;99.90;;;-144.05;72.67;56999.63;5015770;28;20030;-83
2023/02/13 04:28:35;;;;;;;6.32;4.03;;;7.20;99.90;;;-144.05;72.54;56993.25;4995800;28;20539;-81
2023/02/13 04:31:01;;;;;;;7.25;4.40;;;7.20;99.90;;;-144.05;72.75;56995.38;5014013;28;20120;-80
2023/02/13 04:33:27;;;;;;;8.20;4.63;;;7.20;99.90;;;-144.05;72.71;56980.53;5013292;28;20157;-81
2023/02/13 04:35:52;;;;;;;8.13;4.63;;;7.20;99.90;;;-144.05;73.35;57001.75;5013482;28;20034;-80
2023/02/13 04:38:18;;;;;;;7.65;4.32;;;7.20;99.90;;;-144.05;73.51;57027.25;4995639;28;20056;-81
2023/02/13 04:40:44;;;;;;;9.98;5.38;;;7.20;99.90;;;-144.05;72.75;57016.63;5013940;28;20473;-82
2023/02/13 04:43:10;;;;;;;9.68;5.20;;;7.20;99.90;;;-144.05;72.53;56993.25;5015868;28;20037;-83
2023/02/13 04:45:36;;;;;;;8.57;5.10;;;7.20;99.90;;;-144.05;72.55;57012.38;4996322;28;20397;-81
2023/02/13 04:48:01;;;;;;;9.63;5.30;;;7.20;99.90;;;-144.05;73.05;56993.25;4996013;28;20037;-83
2023/02/13 04:50:27;;;;;;;8.48;4.85;;;7.20;99.90;;;-144.05;73.29;56995.38;4996351;28;20069;-80
2023/02/13 04:52:58;;;;;;;10.05;5.22;;;7.20;99.90;;;-144.05;73.13;57006.00;4996230;28;20029;-81
2023/02/13 04:55:27;;;;;;;9.68;5.25;;;7.20;99.90;;;-144.05;73.44;57008.13;4995521;28;20060;-81
2023/02/13 04:57:54;;;;;;;9.02;5.00;;;7.20;99.90;;;-144.05;72.81;57008.13;5012923;28;20034;-82
2023/02/13 05:00:27;;;;;;;7.63;4.75;;;7.20;99.90;;;-144.05;72.87;56980.53;4994906;28;20121;-82
2023/02/13 05:02:58;;;;;;;10.02;6.15;;;7.20;99.90;;;-144.05;72.91;56982.66;5013159;28;20564;-83
2023/02/13 05:05:24;;;;;;;9.88;5.93;;;7.20;99.90;;;-144.05;72.88;57014.50;5012794;28;20034;-82
2023/02/13 05:07:50;;;;;;;8.25;5.03;;;7.10;99.90;;;-144.05;73.47;56984.78;4995460;28;20104;-82
2023/02/13 05:10:16;;;;;;;9.52;5.72;;;7.10;99.90;;;-144.05;73.21;56965.66;5012819;28;20018;-83
2023/02/13 05:12:42;;;;;;;8.80;5.50;;;7.10;99.90;;;-144.05;73.35;57001.75;4994420;28;20059;-82
2023/02/13 05:15:09;;;;;;;8.82;4.70;;;7.20;99.90;;;-144.05;73.71;57012.38;4996423;28;20022;-82
2023/02/13 05:17:34;;;;;;;10.40;5.80;;;7.20;99.90;;;-144.05;74.53;56980.53;4996716;28;20502;-81
2023/02/13 05:20:00;;;;;;;10.18;5.95;;;7.10;99.90;;;-144.05;74.23;57010.25;5014166;28;20030;-82
2023/02/13 05:25:24;;;;;;;10.48;5.82;;;7.20;99.90;;;-144.05;73.43;56986.91;4981526;28;20030;-83
2023/02/13 05:27:50;;;;;;;11.50;6.38;;;7.20;99.90;;;-144.05;73.23;56997.50;4997532;28;20030;-79
2023/02/13 05:30:16;;;;;;;11.48;6.10;;;7.20;99.90;;;-144.05;73.28;56972.03;4997304;28;20018;-79
2023/02/13 05:32:42;;;;;;;9.73;6.15;;;7.20;99.90;;;-144.05;73.45;56995.38;5017297;28;20359;-81
2023/02/13 05:35:08;;;;;;;9.88;5.65;;;7.10;99.90;;;-144.05;73.49;56986.91;5019634;28;20068;-80
2023/02/13 05:37:34;;;;;;;9.13;5.97;;;7.20;99.90;;;-144.05;73.57;56997.50;5000940;28;20028;-80
2023/02/13 05:40:00;;;;;;;10.70;6.13;;;7.20;99.90;;;-144.05;74.42;56984.78;5000261;28;20417;-80
2023/02/13 05:42:26;;;;;;;10.27;6.38;;;7.20;99.90;;;-144.05;74.19;56986.91;5029785;28;20026;-81
2023/02/13 05:44:52;;;;;;;12.40;5.65;;;7.20;99.90;;;-144.05;73.85;56976.28;5027272;28;20378;-81
2023/02/13 05:47:18;;;;;;;11.65;6.38;;;7.20;99.90;;;-144.05;73.75;56993.25;4999563;28;20026;-80
2023/02/13 05:49:44;;;;;;;10.93;5.75;;;7.20;99.90;;;-144.05;73.54;56952.91;5017777;28;20030;-79
2023/02/13 05:52:10;;;;;;;9.25;5.90;;;7.20;99.90;;;-144.05;73.45;56980.53;5017643;28;20046;-78
2023/02/13 05:54:37;;;;;;;10.82;6.40;;;7.20;99.90;;;-144.05;73.63;56978.41;4999911;28;20052;-80
2023/02/13 05:57:03;;;;;;;11.15;5.90;;;7.10;99.90;;;-144.05;73.68;56993.25;5020458;28;20481;-81
2023/02/13 05:59:29;;;;;;;11.65;7.13;;;7.10;99.90;;;-144.05;73.99;57020.88;5018212;28;20156;-77
2023/02/13 06:01:55;;;;;;;12.10;7.25;;;7.10;99.90;;;-144.05;74.25;56991.13;5000622;28;20097;-82
2023/02/13 06:04:21;;;;;;;11.68;6.32;;;7.10;99.90;;;-144.05;74.81;56989.00;5018248;28;20034;-77
2023/02/13 06:06:47;;;;;;;10.40;6.60;;;7.10;99.90;;;-144.05;74.79;56993.25;5017838;28;20411;-78
2023/02/13 06:09:13;;;;;;;10.23;6.25;;;7.10;99.90;;;-144.05;74.05;56984.78;5018589;28;20026;-81
2023/02/13 06:11:38;;;;;;;12.18;7.00;;;7.00;99.90;;;-144.05;74.07;56991.13;5017103;28;20513;-82
2023/02/13 06:14:07;;;;;;;11.68;6.43;;;7.00;99.90;;;-144.05;74.00;57016.63;5019719;28;20029;-80
2023/02/13 06:16:33;;;;;;;10.82;6.25;;;7.00;99.90;;;-144.05;73.85;57014.50;5017374;28;20041;-80
2023/02/13 06:18:59;;;;;;;11.32;6.82;;;6.90;99.90;;;-144.05;73.72;56989.00;5016768;28;20422;-81
2023/02/13 06:21:25;;;;;;;13.68;6.25;;;6.90;99.90;;;-144.05;74.13;56991.13;5018104;28;20034;-79
2023/02/13 06:23:51;;;;;;;10.18;5.88;;;6.80;99.90;;;-144.05;74.09;57010.25;5018271;28;20034;-80
2023/02/13 06:26:17;;;;;;;11.82;6.90;;;6.60;99.90;;;-144.05;74.02;57003.88;5000714;28;20474;-81
2023/02/13 06:28:46;;;;;;;10.57;6.38;;;6.60;99.90;;;-144.05;74.34;56984.78;5019613;28;20026;-81
2023/02/13 06:31:12;;;;;;;13.65;6.68;;;6.50;99.90;;;-144.05;74.21;57023.00;5001441;28;20034;-79
2023/02/13 06:33:37;;;;;;;12.38;7.00;;;6.30;99.90;;;-144.05;75.06;57010.25;5019197;28;20370;-78
2023/02/13 06:36:04;;;;;;;13.98;7.22;;;6.30;99.90;;;-144.05;75.74;57001.75;5019861;28;20116;-80
2023/02/13 06:38:30;;;;;;;12.30;7.20;;;6.20;99.90;;;-144.05;76.12;57014.50;5019034;28;20246;-81
2023/02/13 06:41:01;;;;;;;17.17;8.30;;;6.10;99.90;;;-144.05;75.98;57027.25;5001437;28;20559;-82
2023/02/13 06:43:27;;;;;;;12.30;6.65;;;6.10;99.90;;;-144.05;76.22;56993.25;5018518;28;20030;-81
2023/02/13 06:45:53;;;;;;;12.43;6.65;;;6.10;99.90;;;-144.05;76.54;57012.38;5003334;28;20033;-78
2023/02/13 06:48:19;;;;;;;11.23;6.60;;;6.10;99.90;;;-144.05;76.72;56993.25;5011640;28;20069;-79
2023/02/13 06:50:45;;;;;;;12.77;7.53;;;6.10;99.90;;;-144.05;76.98;56989.00;4999831;28;20060;-82
2023/02/13 06:53:11;;;;;;;11.23;6.85;;;6.10;99.90;;;-144.05;76.80;56993.25;5017875;28;20030;-81
2023/02/13 06:55:39;;;;;;;10.68;7.25;;;6.10;99.90;;;-144.05;76.95;57031.50;5017448;28;20123;-80
2023/02/13 06:58:05;;;;;;;14.05;7.05;;;6.00;99.90;;;-144.05;76.29;56991.13;4999690;28;20515;-81
2023/02/13 07:00:31;;;;;;;12.75;6.75;;;5.90;99.90;;;-144.05;76.48;57010.25;5000117;28;20060;-80
2023/02/13 07:03:08;;;;;;;15.68;7.82;;;5.90;99.90;;;-144.05;76.35;57008.13;5001106;28;20026;-80
2023/02/13 07:05:34;;;;;;;12.75;6.80;;;5.80;99.90;;;-144.05;76.79;56993.25;5001448;28;20421;-81
2023/02/13 07:08:00;;;;;;;11.57;7.38;;;5.70;99.90;;;-144.05;77.26;57006.00;5019352;28;20072;-82
2023/02/13 07:10:26;;;;;;;14.82;6.68;;;5.70;99.90;;;-144.05;77.93;57016.63;5018616;28;20030;-79
2023/02/13 07:12:52;;;;;;;13.40;7.78;;;5.60;99.90;;;-144.05;78.20;57016.63;5015595;28;20033;-79
2023/02/13 07:15:18;;;;;;;13.75;7.32;;;5.60;99.90;;;-144.05;78.13;57012.38;4998231;28;20191;-82
2023/02/13 07:17:44;;;;;;;14.45;7.85;;;5.60;99.90;;;-144.05;79.17;57035.75;4999487;28;20393;-82
2023/02/13 07:20:11;;;;;;;13.23;7.20;;;5.70;99.90;;;-144.05;78.66;57016.63;5016450;28;20339;-83
2023/02/13 07:22:36;;;;;;;13.50;7.00;;;5.80;99.90;;;-144.05;77.93;57023.00;4999484;28;20026;-82
2023/02/13 07:25:02;;;;;;;12.80;7.80;;;6.00;99.90;;;-144.05;77.17;57010.25;5017381;28;20022;-82
2023/02/13 07:27:29;;;;;;;13.45;7.07;;;6.00;99.90;;;-144.05;76.57;56997.50;4998562;28;20053;-82
2023/02/13 07:29:56;;;;;;;13.43;7.65;;;6.10;99.90;;;-144.05;76.00;56999.63;5001005;28;20018;-82
2023/02/13 07:32:24;;;;;;;15.10;7.82;;;6.20;99.90;;;-144.05;75.51;56993.25;5017756;28;20068;-84
2023/02/13 07:34:49;;;;;;;13.57;7.38;;;6.30;99.90;;;-144.05;75.37;57003.88;5018441;28;20030;-83
2023/02/13 07:37:15;;;;;;;16.48;7.43;;;6.30;99.90;;;-144.05;74.54;56969.91;5000792;28;20040;-81
2023/02/13 07:39:41;;;;;;;11.95;7.03;;;6.40;99.90;;;-144.05;74.31;56999.63;5019360;28;20509;-82
2023/02/13 07:42:07;;;;;;;11.80;6.57;;;6.60;99.90;;;-144.05;73.91;56982.66;5023052;28;20091;-80
2023/02/13 07:44:33;;;;;;;14.60;6.45;;;6.70;99.90;;;-144.05;73.95;56984.78;5034670;28;20026;-80
2023/02/13 07:46:59;;;;;;;16.08;7.25;;;7.00;99.90;;;-144.05;72.24;56982.66;5016201;28;20029;-83
2023/02/13 07:49:25;;;;;;;13.95;7.47;;;7.40;99.90;;;-144.05;70.00;56980.53;4997205;28;20056;-84
2023/02/13 07:51:51;;;;;;;12.20;6.40;;;7.60;99.90;;;-144.05;68.62;56989.00;5016058;28;20037;-82
2023/02/13 07:54:17;;;;;;;12.15;7.20;;;7.80;99.90;;;-144.05;68.02;56967.78;4996927;28;20026;-81
2023/02/13 07:56:43;;;;;;;9.18;6.53;;;8.20;99.90;;;-144.05;66.83;56976.28;5015139;28;20463;-81
2023/02/13 07:59:10;;;;;;;11.75;6.57;;;8.50;99.90;;;-144.05;64.96;56957.16;5014721;28;20390;-83
2023/02/13 08:01:36;;;;;;;14.10;7.38;;;8.90;99.90;;;-144.05;63.45;56961.41;4997917;28;20422;-80
2023/02/13 08:04:01;;;;;;;12.80;6.70;;;9.00;99.90;;;-144.05;62.10;56986.91;4997639;28;20029;-82
2023/02/13 08:06:27;;;;;;;14.20;7.20;;;9.30;99.90;;;-144.05;62.14;56969.91;5015630;28;20026;-81
2023/02/13 08:11:52;;;;;;;10.48;6.75;;;9.40;99.90;;;-144.05;61.96;56982.66;5016009;28;20022;-83
2023/02/13 08:11:52;;;;;;;11.02;6.32;;;9.50;99.90;;;-144.05;63.04;56982.66;5014737;28;20105;-81
2023/02/13 08:14:23;;;;;;;13.00;7.35;;;9.30;99.90;;;-144.05;63.09;56999.63;4996607;28;20448;-82
2023/02/13 08:16:51;;;;;;;10.95;6.72;;;9.50;99.90;;;-144.05;63.43;56986.91;5014886;28;20030;-79
2023/02/13 08:19:17;;;;;;;12.80;6.97;;;9.60;99.90;;;-144.05;62.48;56955.03;4997275;28;20098;-81
2023/02/13 08:21:45;;;;;;;12.45;6.38;;;9.70;99.90;;;-144.05;62.54;56967.78;5015445;28;20056;-82
2023/02/13 08:24:12;;;;;;;12.68;6.28;;;9.60;99.90;;;-144.05;62.59;56946.53;5014649;28;20030;-82
2023/02/13 08:26:38;;;;;;;11.25;7.07;;;9.60;99.90;;;-144.05;63.07;56957.16;4996239;28;20025;-80
2023/02/13 08:29:05;;;;;;;12.05;6.57;;;9.70;99.90;;;-144.05;62.37;56976.28;4995932;28;20029;-82
2023/02/13 08:31:32;;;;;;;12.10;7.05;;;9.80;99.90;;;-144.05;61.26;56952.91;4996953;28;20061;-80
2023/02/13 08:33:58;;;;;;;11.65;6.57;;;9.90;99.90;;;-144.05;61.84;56965.66;5014426;28;20084;-81
2023/02/13 08:36:24;;;;;;;12.82;6.90;;;9.90;99.90;;;-144.05;60.65;56952.91;5015605;28;20029;-81
2023/02/13 08:38:52;;;;;;;14.45;8.55;;;10.10;99.90;;;-144.05;60.01;56957.16;4997530;28;20026;-80
2023/02/13 08:41:20;;;;;;;10.75;6.65;;;10.30;99.90;;;-144.05;59.75;56963.53;4997861;28;20034;-82
2023/02/13 08:43:48;;;;;;;19.80;11.35;;;10.40;99.90;;;-144.05;58.96;56955.03;5016307;28;20076;-80
2023/02/13 08:46:16;;;;;;;10.88;6.72;;;10.40;99.90;;;-144.05;59.21;56967.78;5019033;28;20057;-82
2023/02/13 08:48:43;;;;;;;11.63;7.07;;;10.50;99.90;;;-144.05;59.60;56978.41;5016058;28;20026;-81
2023/02/13 08:51:12;;;;;;;10.90;6.47;;;10.60;99.90;;;-144.05;59.82;56959.28;5016002;28;20049;-82
2023/02/13 08:53:39;;;;;;;12.32;6.88;;;10.60;99.90;;;-144.05;59.51;56961.41;4997995;28;20038;-82
2023/02/13 08:56:06;;;;;;;10.88;6.35;;;10.70;99.90;;;-144.05;58.39;56944.41;4998052;28;20430;-82
2023/02/13 08:58:32;;;;;;;14.00;9.15;;;10.80;99.90;;;-144.05;58.09;56959.28;4997107;28;20388;-80
2023/02/13 09:00:58;;;;;;;14.00;7.13;;;10.80;99.90;;;-144.05;58.78;56957.16;4997709;28;20100;-82
2023/02/13 09:03:24;;;;;;;10.30;7.40;;;10.90;99.90;;;-144.05;58.29;56959.28;5015448;28;20026;-82
2023/02/13 09:05:50;;;;;;;11.18;6.60;;;10.90;99.90;;;-144.05;57.25;56948.66;5017192;28;20049;-82
2023/02/13 09:08:15;;;;;;;11.52;7.32;;;11.00;99.90;;;-144.05;57.10;56944.41;5019876;28;20556;-81
2023/02/13 09:10:44;;;;;;;9.35;5.88;;;11.20;99.90;;;-144.05;57.34;56972.03;5001492;28;20378;-83
2023/02/13 09:13:11;;;;;;;10.77;6.25;;;11.30;99.90;;;-144.05;56.43;56948.66;5001962;28;20084;-81
2023/02/13 09:15:40;;;;;;;11.43;6.90;;;11.50;99.90;;;-144.05;55.86;56974.16;5001751;28;20044;-83
2023/02/13 09:18:07;;;;;;;10.60;6.75;;;11.60;99.90;;;-144.05;55.26;56938.03;5001860;28;20032;-79
2023/02/13 09:20:33;;;;;;;10.88;6.60;;;11.70;99.90;;;-144.05;55.33;56955.03;5001894;28;20052;-81
2023/02/13 09:22:59;;;;;;;10.38;6.30;;;11.70;99.90;;;-144.05;54.40;56938.03;5002520;28;20029;-81
2023/02/13 09:25:25;;;;;;;10.13;6.60;;;11.80;99.90;;;-144.05;54.31;56978.41;5001901;28;20102;-81
2023/02/13 09:27:51;;;;;;;12.30;6.72;;;11.80;99.90;;;-144.05;54.50;56952.91;5019366;28;20445;-82
2023/02/13 09:30:22;;;;;;;10.45;6.88;;;11.70;99.90;;;-144.05;53.93;56944.41;5003366;28;20064;-82
2023/02/13 09:32:51;;;;;;;10.40;6.50;;;11.90;99.90;;;-144.05;53.71;56961.41;5003294;28;20458;-84
2023/02/13 09:35:20;;;;;;;10.70;6.88;;;12.20;99.90;;;-144.05;53.24;56933.78;5021739;28;20030;-82
2023/02/13 09:37:46;;;;;;;9.07;6.20;;;12.30;99.90;;;-144.05;54.49;56942.28;5022402;28;20022;-83
2023/02/13 09:40:56;;;;;;;9.98;6.47;;;12.00;99.90;;;-144.05;53.29;56957.16;5004573;28;20030;-82
2023/02/13 09:43:39;;;;;;;10.95;6.18;;;12.20;99.90;;;-144.05;52.02;56974.16;5038736;28;20044;-80
2023/02/13 09:46:19;;;;;;;9.95;6.82;;;12.40;99.90;;;-144.05;52.60;56942.28;5013073;28;20088;-80
2023/02/13 09:48:55;;;;;;;12.85;6.95;;;12.50;99.90;;;-144.05;52.56;56944.41;5025145;28;20040;-82
2023/02/13 09:51:25;;;;;;;9.70;7.00;;;12.60;99.90;;;-144.05;51.96;56952.91;5013031;28;20020;-77
2023/02/13 09:54:05;;;;;;;11.15;7.88;;;12.70;99.90;;;-144.05;51.72;56942.28;5017334;28;20042;-80
2023/02/13 09:57:01;;;;;;;11.05;7.75;;;12.60;99.90;;;-144.05;52.62;56967.78;5023394;28;20097;-82
2023/02/13 10:00:03;;;;;;;13.38;7.85;;;12.70;99.90;;;-144.05;52.10;56955.03;5004109;28;20034;-80
2023/02/13 10:03:16;;;;;;;10.10;7.10;;;12.60;99.90;;;-144.05;51.55;56918.94;5005287;28;20064;-83
2023/02/13 10:06:10;;;;;;;9.88;6.93;;;12.90;99.90;;;-144.05;51.51;56946.53;5002208;28;20030;-82
2023/02/13 10:09:04;;;;;;;9.27;6.30;;;12.80;99.90;;;-144.05;51.02;56935.91;5000310;28;20021;-82
2023/02/13 10:12:01;;;;;;;11.13;7.40;;;12.90;99.90;;;-144.05;50.83;56929.53;5016738;28;20507;-81
2023/02/13 10:15:45;;;;;;;9.88;6.63;;;12.90;99.90;;;-144.05;51.43;56938.03;5022412;28;20036;-83
2023/02/13 10:18:33;;;;;;;12.07;7.07;;;12.60;99.90;;;-144.05;51.63;56944.41;5020422;28;20054;-81
2023/02/13 10:21:04;;;;;;;10.68;7.10;;;12.50;99.90;;;-144.05;50.85;56929.53;5022006;28;20054;-83
2023/02/13 10:24:03;;;;;;;10.52;7.05;;;12.70;99.90;;;-144.05;50.55;56961.41;5007189;28;20065;-81
2023/02/13 10:26:42;;;;;;;11.02;7.28;;;13.00;99.90;;;-144.05;50.56;56946.53;5006505;28;20029;-83
2023/02/13 10:32:44;;;;;;;11.48;7.78;;;12.90;99.90;;;-144.05;51.28;56959.28;5020304;28;20037;-84
2023/02/13 10:35:30;;;;;;;11.05;7.45;;;12.90;99.90;;;-144.05;50.87;56974.16;5000735;28;20164;-82
2023/02/13 10:37:59;;;;;;;;;;;13.00;99.90;;;-144.05;51.38;56957.16;5019988;28;20052;-81
2023/02/13 10:40:43;;;;;;;13.65;7.43;;;13.00;99.90;;;-144.05;51.13;56942.28;5023590;28;20292;-80
2023/02/13 10:43:19;;;;;;;11.88;8.07;;;13.10;99.90;;;-144.05;50.21;56950.78;5022068;28;20022;-82
2023/02/13 10:46:17;;;;;;;12.98;7.57;;;13.10;99.90;;;-144.05;49.50;56929.53;5000065;28;20089;-80
2023/02/13 10:49:08;;;;;;;11.35;7.63;;;13.30;99.90;;;-144.05;49.88;56955.03;5000529;28;20386;-81
2023/02/13 10:52:25;;;;;;;13.13;7.45;;;13.30;99.90;;;-144.05;49.28;56946.53;5018379;28;20026;-81
2023/02/13 10:55:47;;;;;;;10.85;6.97;;;13.40;99.90;;;-144.05;50.11;56989.00;4994709;28;20045;-81
2023/02/13 10:58:27;;;;;;;10.60;7.13;;;13.30;99.90;;;-144.05;49.33;56961.41;5018034;28;20037;-82
2023/02/13 11:01:14;;;;;;;11.85;7.53;;;13.40;99.90;;;-144.05;49.36;56963.53;5016902;28;20026;-81
2023/02/13 11:03:39;;;;;;;;;;;13.40;99.90;;;-144.05;49.42;56963.53;5001209;28;20057;-81
2023/02/13 11:06:14;;;;;;;13.38;7.07;;;13.60;99.90;;;-144.05;49.52;56950.78;5000820;28;19913;-82
2023/02/13 11:08:49;;;;;;;8.93;6.47;;;13.50;99.90;;;-144.05;48.97;56969.91;5000304;28;20073;-83
2023/02/13 11:11:42;;;;;;;11.02;7.45;;;13.80;99.90;;;-144.05;48.20;56965.66;4998624;28;20026;-81